createdAt,value
2018-11-21T00:02:11.346Z,86.90
2018-11-21T00:04:59.253Z,87.30
2018-11-21T00:07:47.051Z,87.00
2018-11-21T00:10:34.950Z,87.10
2018-11-21T00:13:15.473Z,87.20
2018-11-21T00:15:56.466Z,87.60
2018-11-21T00:18:37.553Z,87.50
2018-11-21T00:21:18.679Z,86.90
2018-11-21T00:23:59.474Z,86.10
2018-11-21T00:26:39.867Z,86.00
2018-11-21T00:29:20.637Z,86.10
2018-11-21T00:32:01.408Z,86.20
2018-11-21T00:34:42.764Z,86.10
2018-11-21T00:37:24.215Z,86.40
2018-11-21T00:40:04.906Z,86.50
2018-11-21T00:42:46.878Z,86.30
2018-11-21T00:45:25.985Z,86.50
2018-11-21T00:48:06.507Z,86.20
2018-11-21T00:50:47.318Z,86.00
2018-11-21T00:53:27.633Z,85.90
2018-11-21T00:56:08.694Z,86.20
2018-11-21T01:01:31.883Z,85.80
2018-11-21T01:04:12.495Z,85.20
2018-11-21T01:06:53.441Z,85.20
2018-11-21T01:09:34.145Z,85.20
2018-11-21T01:12:14.566Z,85.10
2018-11-21T01:14:55.238Z,85.30
2018-11-21T01:17:36.223Z,85.40
2018-11-21T01:20:17.461Z,85.90
2018-11-21T01:22:58.542Z,85.50
2018-11-21T01:25:39.678Z,85.60
2018-11-21T01:28:20.395Z,85.60
2018-11-21T01:31:01.713Z,85.40
2018-11-21T01:33:42.823Z,85.40
2018-11-21T01:36:23.728Z,85.20
2018-11-21T01:39:04.854Z,85.40
2018-11-21T01:41:45.962Z,85.20
2018-11-21T01:44:27.105Z,85.10
2018-11-21T01:47:07.722Z,85.40
2018-11-21T01:49:48.470Z,85.30
2018-11-21T01:52:28.902Z,85.20
2018-11-21T01:55:10.166Z,85.10
2018-11-21T01:57:51.016Z,84.80
2018-11-21T02:00:32.183Z,84.70
2018-11-21T02:05:54.847Z,84.90
2018-11-21T02:08:35.758Z,84.80
2018-11-21T02:11:16.634Z,85.30
2018-11-21T02:13:57.098Z,85.60
2018-11-21T02:16:38.090Z,85.50
2018-11-21T02:19:19.121Z,85.10
2018-11-21T02:21:59.470Z,85.10
2018-11-21T02:24:39.884Z,84.90
2018-11-21T02:27:20.896Z,85.10
2018-11-21T02:30:02.059Z,85.20
2018-11-21T02:32:43.181Z,85.40
2018-11-21T02:35:23.393Z,85.30
2018-11-21T02:38:04.043Z,85.20
2018-11-21T02:40:44.743Z,85.60
2018-11-21T02:43:25.851Z,86.10
2018-11-21T02:46:06.470Z,84.80
2018-11-21T02:48:47.054Z,84.50
2018-11-21T02:51:28.186Z,84.40
2018-11-21T02:54:09.151Z,84.40
2018-11-21T02:56:49.599Z,84.60
2018-11-21T02:59:30.770Z,85.00
2018-11-21T03:02:12.045Z,85.30
2018-11-21T03:04:53.167Z,85.30
2018-11-21T03:07:34.450Z,85.40
2018-11-21T03:10:15.715Z,85.30
2018-11-21T03:12:56.731Z,85.30
2018-11-21T03:15:37.310Z,85.30
2018-11-21T03:18:18.379Z,85.40
2018-11-21T03:20:59.592Z,84.90
2018-11-21T03:23:39.819Z,85.10
2018-11-21T03:26:20.218Z,85.30
2018-11-21T03:29:00.824Z,85.50
2018-11-21T03:31:42.149Z,85.30
2018-11-21T03:34:23.014Z,85.40
2018-11-21T03:37:04.291Z,85.60
2018-11-21T03:39:45.328Z,85.80
2018-11-21T03:42:26.315Z,85.60
2018-11-21T03:45:06.758Z,85.50
2018-11-21T03:47:47.747Z,86.20
2018-11-21T03:53:10.554Z,86.00
2018-11-21T03:55:51.102Z,86.10
2018-11-21T03:58:32.307Z,87.00
2018-11-21T04:01:13.345Z,86.70
2018-11-21T04:03:54.029Z,85.70
2018-11-21T04:06:35.361Z,85.50
2018-11-21T04:09:16.636Z,85.50
2018-11-21T04:11:57.683Z,85.70
2018-11-21T04:14:38.865Z,84.80
2018-11-21T04:17:19.954Z,85.00
2018-11-21T04:20:01.112Z,85.80
2018-11-21T04:22:42.219Z,86.00
2018-11-21T04:25:23.414Z,85.80
2018-11-21T04:28:04.371Z,86.00
2018-11-21T04:30:44.672Z,85.00
2018-11-21T04:33:25.812Z,85.40
2018-11-21T04:36:06.122Z,87.70
2018-11-21T04:38:45.064Z,87.80
2018-11-21T04:41:32.815Z,87.50
2018-11-21T04:44:20.606Z,86.00
2018-11-21T04:47:08.370Z,84.80
2018-11-21T04:49:56.157Z,86.30
2018-11-21T04:52:43.894Z,86.70
2018-11-21T04:55:31.842Z,87.50
2018-11-21T04:58:19.625Z,87.30
2018-11-21T05:01:07.433Z,86.00
2018-11-21T05:03:55.153Z,86.10
2018-11-21T05:06:42.966Z,86.20
2018-11-21T05:09:30.739Z,86.20
2018-11-21T05:12:18.523Z,85.50
2018-11-21T05:15:06.426Z,86.40
2018-11-21T05:17:54.194Z,86.10
2018-11-21T05:23:35.467Z,86.40
2018-11-21T05:26:23.196Z,86.40
2018-11-21T05:28:51.864Z,86.20
2018-11-21T05:31:39.587Z,85.90
2018-11-21T05:34:27.399Z,87.30
2018-11-21T05:37:15.140Z,87.70
2018-11-21T05:40:03.009Z,86.50
2018-11-21T05:42:50.785Z,86.20
2018-11-21T05:45:38.520Z,85.70
2018-11-21T05:48:26.313Z,86.90
2018-11-21T05:51:14.068Z,87.70
2018-11-21T05:54:01.871Z,87.50
2018-11-21T05:56:49.606Z,87.10
2018-11-21T05:59:37.473Z,87.60
2018-11-21T06:02:25.200Z,87.20
2018-11-21T06:05:13.295Z,88.00
2018-11-21T06:08:01.022Z,87.50
2018-11-21T06:10:48.847Z,87.50
2018-11-21T06:13:36.595Z,87.40
2018-11-21T06:16:24.391Z,87.70
2018-11-21T06:19:12.352Z,87.40
2018-11-21T06:22:00.145Z,87.90
2018-11-21T06:24:47.891Z,88.80
2018-11-21T06:27:29.158Z,88.20
2018-11-21T06:30:09.515Z,88.10
2018-11-21T06:32:49.978Z,88.10
2018-11-21T06:35:30.103Z,88.60
2018-11-21T06:38:11.389Z,88.60
2018-11-21T06:40:52.601Z,89.00
2018-11-21T06:43:33.131Z,89.00
2018-11-21T06:46:14.415Z,89.90
2018-11-21T06:48:55.189Z,89.40
2018-11-21T06:51:36.355Z,89.30
2018-11-21T06:54:17.325Z,88.80
2018-11-21T06:56:58.350Z,88.00
2018-11-21T06:59:39.561Z,88.50
2018-11-21T07:02:20.590Z,88.60
2018-11-21T07:05:01.816Z,88.90
2018-11-21T07:07:42.375Z,88.50
2018-11-21T07:10:13.839Z,88.50
2018-11-21T07:13:01.670Z,88.60
2018-11-21T07:15:49.527Z,88.80
2018-11-21T07:18:37.717Z,88.80
2018-11-21T07:21:25.528Z,88.10
2018-11-21T07:24:13.332Z,87.90
2018-11-21T07:27:01.176Z,87.80
2018-11-21T07:29:49.021Z,87.90
2018-11-21T07:32:36.839Z,87.90
2018-11-21T07:35:24.649Z,87.30
2018-11-21T07:38:12.515Z,87.80
2018-11-21T07:41:00.448Z,88.00
2018-11-21T07:43:48.240Z,87.20
2018-11-21T07:46:36.147Z,86.60
2018-11-21T07:49:24.202Z,86.70
2018-11-21T07:52:12.068Z,87.00
2018-11-21T07:54:59.814Z,86.40
2018-11-21T07:57:52.552Z,85.10
2018-11-21T08:01:03.573Z,83.90
2018-11-21T08:04:10.557Z,83.30
2018-11-21T08:07:02.257Z,82.70
2018-11-21T08:10:09.338Z,82.20
2018-11-21T08:13:16.487Z,81.60
2018-11-21T08:16:23.276Z,81.60
2018-11-21T08:19:30.180Z,81.00
2018-11-21T08:22:37.189Z,80.70
2018-11-21T08:25:44.119Z,81.40
2018-11-21T08:28:32.061Z,81.50
2018-11-21T08:31:19.816Z,81.40
2018-11-21T08:34:07.622Z,81.00
2018-11-21T08:36:55.385Z,80.60
2018-11-21T08:39:43.267Z,80.70
2018-11-21T08:42:31.030Z,80.70
2018-11-21T08:45:18.836Z,81.20
2018-11-21T08:48:06.837Z,81.30
2018-11-21T08:50:54.622Z,80.80
2018-11-21T08:53:42.365Z,80.50
2018-11-21T08:56:30.183Z,80.50
2018-11-21T08:59:17.919Z,80.10
2018-11-21T09:02:05.754Z,80.00
2018-11-21T09:04:53.474Z,80.40
2018-11-21T09:07:42.150Z,79.80
2018-11-21T09:13:17.021Z,79.30
2018-11-21T09:16:04.997Z,79.50
2018-11-21T09:18:52.853Z,79.40
2018-11-21T09:21:40.717Z,79.20
2018-11-21T09:24:28.469Z,78.90
2018-11-21T09:27:16.264Z,78.50
2018-11-21T09:30:04.890Z,78.10
2018-11-21T09:32:54.348Z,78.20
2018-11-21T09:35:42.089Z,77.70
2018-11-21T09:38:29.933Z,77.50
2018-11-21T09:41:17.705Z,76.90
2018-11-21T09:44:05.648Z,76.80
2018-11-21T09:46:53.417Z,76.90
2018-11-21T09:49:41.273Z,76.70
2018-11-21T09:52:29.065Z,76.10
2018-11-21T09:55:17.096Z,75.90
2018-11-21T09:58:05.025Z,76.10
2018-11-21T10:01:12.138Z,76.40
2018-11-21T10:04:01.024Z,76.70
2018-11-21T10:06:47.745Z,76.80
2018-11-21T10:12:31.955Z,76.40
2018-11-21T10:15:19.740Z,76.80
2018-11-21T10:18:07.560Z,76.20
2018-11-21T10:20:55.418Z,76.40
2018-11-21T10:23:43.261Z,76.70
2018-11-21T10:26:31.144Z,77.00
2018-11-21T10:29:18.994Z,76.20
2018-11-21T10:32:06.925Z,76.80
2018-11-21T10:34:54.773Z,75.80
2018-11-21T10:37:42.542Z,76.30
2018-11-21T10:40:30.345Z,76.10
2018-11-21T10:43:18.204Z,76.20
2018-11-21T10:46:06.262Z,76.30
2018-11-21T10:48:54.028Z,75.90
2018-11-21T10:51:41.899Z,75.50
2018-11-21T10:54:29.641Z,75.50
2018-11-21T10:57:17.476Z,75.30
2018-11-21T11:00:08.340Z,74.70
2018-11-21T11:03:15.325Z,74.50
2018-11-21T11:06:22.330Z,74.30
2018-11-21T11:09:29.973Z,73.70
2018-11-21T11:12:36.882Z,73.40
2018-11-21T11:15:43.977Z,73.50
2018-11-21T11:18:50.933Z,73.50
2018-11-21T11:21:57.919Z,73.40
2018-11-21T11:25:04.825Z,73.30
2018-11-21T11:28:14.640Z,74.40
2018-11-21T11:31:09.177Z,73.90
2018-11-21T11:34:16.130Z,74.00
2018-11-21T11:37:23.088Z,73.50
2018-11-21T11:40:30.119Z,73.40
2018-11-21T11:43:11.039Z,73.50
2018-11-21T11:46:10.550Z,73.40
2018-11-21T11:49:17.463Z,73.50
2018-11-21T11:52:24.524Z,73.10
2018-11-21T11:55:31.473Z,73.10
2018-11-21T11:58:27.081Z,72.80
2018-11-21T12:01:34.000Z,73.00
2018-11-21T12:04:40.879Z,72.80
2018-11-21T12:07:43.522Z,72.40
2018-11-21T12:10:35.327Z,73.20
2018-11-21T12:13:41.388Z,73.00
2018-11-21T12:16:47.525Z,73.10
2018-11-21T12:19:47.551Z,73.30
2018-11-21T12:22:50.386Z,73.40
2018-11-21T12:25:50.563Z,73.40
2018-11-21T12:28:38.316Z,73.30
2018-11-21T12:31:45.236Z,74.00
2018-11-21T12:34:52.249Z,74.50
2018-11-21T12:37:59.134Z,74.60
2018-11-21T12:41:06.299Z,74.10
2018-11-21T12:47:20.101Z,74.60
2018-11-21T12:50:27.903Z,74.60
2018-11-21T12:53:34.866Z,75.30
2018-11-21T12:56:41.835Z,75.50
2018-11-21T12:59:48.749Z,75.40
2018-11-21T13:02:55.770Z,75.20
2018-11-21T13:06:02.656Z,74.80
2018-11-21T13:09:09.652Z,74.90
2018-11-21T13:12:07.994Z,74.50
2018-11-21T13:15:14.962Z,74.90
2018-11-21T13:18:21.911Z,74.20
2018-11-21T13:21:29.018Z,74.30
2018-11-21T13:24:35.977Z,74.60
2018-11-21T13:27:42.859Z,74.50
2018-11-21T13:30:50.035Z,74.10
2018-11-21T13:33:56.900Z,74.10
2018-11-21T13:37:03.840Z,74.20
2018-11-21T13:40:11.572Z,74.40
2018-11-21T13:43:18.575Z,74.50
2018-11-21T13:46:25.460Z,74.30
2018-11-21T13:49:32.395Z,73.60
2018-11-21T13:52:39.351Z,74.00
2018-11-21T13:55:08.344Z,74.10
2018-11-21T13:57:56.151Z,73.90
2018-11-21T14:00:44.031Z,74.30
2018-11-21T14:03:31.933Z,74.60
2018-11-21T14:06:19.672Z,74.30
2018-11-21T14:09:11.268Z,74.20
2018-11-21T14:11:59.239Z,74.00
2018-11-21T14:14:47.766Z,74.90
2018-11-21T14:17:36.203Z,75.10
2018-11-21T14:20:24.192Z,75.10
2018-11-21T14:23:11.992Z,74.90
2018-11-21T14:25:59.937Z,74.50
2018-11-21T14:28:47.715Z,74.60
2018-11-21T14:31:35.615Z,74.60
2018-11-21T14:34:23.427Z,74.70
2018-11-21T14:37:11.197Z,74.90
2018-11-21T14:39:59.047Z,74.70
2018-11-21T14:42:46.849Z,74.60
2018-11-21T14:45:34.651Z,74.70
2018-11-21T14:48:22.661Z,74.40
2018-11-21T14:51:10.510Z,74.50
2018-11-21T14:53:58.330Z,74.30
2018-11-21T14:56:46.335Z,74.10
2018-11-21T14:59:34.166Z,74.50
2018-11-21T15:02:22.108Z,74.70
2018-11-21T15:05:10.869Z,75.00
2018-11-21T15:07:58.892Z,74.60
2018-11-21T15:10:46.747Z,74.00
2018-11-21T15:13:35.067Z,73.80
2018-11-21T15:16:23.639Z,73.40
2018-11-21T15:19:11.798Z,74.70
2018-11-21T15:24:54.179Z,73.90
2018-11-21T15:27:42.123Z,74.00
2018-11-21T15:30:30.533Z,73.80
2018-11-21T15:33:18.436Z,74.10
2018-11-21T15:36:06.406Z,74.30
2018-11-21T15:41:48.359Z,74.40
2018-11-21T15:44:36.483Z,74.30
2018-11-21T15:47:24.342Z,74.70
2018-11-21T15:50:13.622Z,74.90
2018-11-21T15:53:01.428Z,75.30
2018-11-21T15:55:49.359Z,75.50
2018-11-21T15:58:37.091Z,75.50
2018-11-21T16:01:25.037Z,75.70
2018-11-21T16:04:12.826Z,75.60
2018-11-21T16:07:00.653Z,75.70
2018-11-21T16:09:48.446Z,75.80
2018-11-21T16:15:35.455Z,75.90
2018-11-21T16:18:18.845Z,76.00
2018-11-21T16:21:06.680Z,75.90
2018-11-21T16:23:54.510Z,75.70
2018-11-21T16:26:42.337Z,75.80
2018-11-21T16:29:10.741Z,75.80
2018-11-21T16:31:58.478Z,75.80
2018-11-21T16:34:46.268Z,75.80
2018-11-21T16:37:34.026Z,76.20
2018-11-21T16:40:23.550Z,76.10
2018-11-21T16:43:11.379Z,76.10
2018-11-21T16:45:59.794Z,75.90
2018-11-21T16:48:47.604Z,75.90
2018-11-21T16:51:35.328Z,76.00
2018-11-21T16:54:23.219Z,75.90
2018-11-21T16:57:11.059Z,76.10
2018-11-21T16:59:58.849Z,76.00
2018-11-21T17:02:46.705Z,75.80
2018-11-21T17:05:34.452Z,75.90
2018-11-21T17:11:15.799Z,76.60
2018-11-21T17:14:03.614Z,76.30
2018-11-21T17:16:51.465Z,76.30
2018-11-21T17:19:39.259Z,75.90
2018-11-21T17:22:27.076Z,75.80
2018-11-21T17:25:16.478Z,75.80
2018-11-21T17:28:04.566Z,76.00
2018-11-21T17:30:32.987Z,75.90
2018-11-21T17:33:20.852Z,76.00
2018-11-21T17:36:08.583Z,76.00
2018-11-21T17:38:56.384Z,76.20
2018-11-21T17:41:44.848Z,76.10
2018-11-21T17:44:25.823Z,76.40
2018-11-21T17:47:06.231Z,76.10
2018-11-21T17:49:47.400Z,76.40
2018-11-21T17:52:26.932Z,76.30
2018-11-21T17:55:08.193Z,76.20
2018-11-21T17:57:48.392Z,77.00
2018-11-21T18:00:29.686Z,76.10
2018-11-21T18:02:58.279Z,76.10
2018-11-21T18:05:46.136Z,76.30
2018-11-21T18:08:33.945Z,75.90
2018-11-21T18:11:21.881Z,75.70
2018-11-21T18:14:09.675Z,75.80
2018-11-21T18:16:57.414Z,75.60
2018-11-21T18:19:45.246Z,75.60
2018-11-21T18:22:33.016Z,75.70
2018-11-21T18:25:23.011Z,75.70
2018-11-21T18:28:10.846Z,76.20
2018-11-21T18:30:58.686Z,76.80
2018-11-21T18:33:46.493Z,77.00
2018-11-21T18:36:34.349Z,76.60
2018-11-21T18:39:22.153Z,76.70
2018-11-21T18:42:10.014Z,76.40
2018-11-21T18:44:57.852Z,76.80
2018-11-21T18:47:46.241Z,76.50
2018-11-21T18:50:34.056Z,76.50
2018-11-21T18:53:21.972Z,76.60
2018-11-21T18:56:12.170Z,76.40
2018-11-21T18:59:01.830Z,76.20
2018-11-21T19:01:49.617Z,75.80
2018-11-21T19:04:37.425Z,76.00
2018-11-21T19:07:25.258Z,75.90
2018-11-21T19:10:14.443Z,76.00
2018-11-21T19:13:02.278Z,75.90
2018-11-21T19:15:50.024Z,76.20
2018-11-21T19:18:37.852Z,75.90
2018-11-21T19:21:25.994Z,76.30
2018-11-21T19:24:13.351Z,76.20
2018-11-21T19:27:01.171Z,76.20
2018-11-21T19:29:49.129Z,76.40
2018-11-21T19:32:36.883Z,76.60
2018-11-21T19:35:24.790Z,76.50
2018-11-21T19:38:12.648Z,76.40
2018-11-21T19:41:00.504Z,76.60
2018-11-21T19:43:48.330Z,76.60
2018-11-21T19:46:36.255Z,76.80
2018-11-21T19:49:24.120Z,76.60
2018-11-21T19:52:12.032Z,76.70
2018-11-21T19:54:59.830Z,76.60
2018-11-21T19:57:47.988Z,76.50
2018-11-21T20:03:30.113Z,76.60
2018-11-21T20:08:53.443Z,77.10
2018-11-21T20:11:33.784Z,77.50
2018-11-21T20:14:14.633Z,77.60
2018-11-21T20:16:55.230Z,77.50
2018-11-21T20:22:18.380Z,78.80
2018-11-21T20:24:59.305Z,78.60
2018-11-21T20:27:40.644Z,78.60
2018-11-21T20:30:23.768Z,78.10
2018-11-21T20:33:04.241Z,78.00
2018-11-21T20:35:45.434Z,78.40
2018-11-21T20:38:26.596Z,78.80
2018-11-21T20:41:07.166Z,78.20
2018-11-21T20:43:48.012Z,78.60
2018-11-21T20:46:28.867Z,77.70
2018-11-21T20:49:11.514Z,78.00
2018-11-21T20:51:50.079Z,78.20
2018-11-21T20:54:31.174Z,78.40
2018-11-21T20:57:12.394Z,78.10
2018-11-21T20:59:53.084Z,78.50
2018-11-21T21:02:34.275Z,78.70
2018-11-21T21:05:16.259Z,79.20
2018-11-21T21:07:57.143Z,79.20
2018-11-21T21:10:43.945Z,79.10
2018-11-21T21:13:24.786Z,79.00
2018-11-21T21:16:05.990Z,78.90
2018-11-21T21:18:48.187Z,79.20
2018-11-21T21:21:31.012Z,79.40
2018-11-21T21:24:12.029Z,79.40
2018-11-21T21:26:53.551Z,79.50
2018-11-21T21:29:34.500Z,79.70
2018-11-21T21:32:14.898Z,80.20
2018-11-21T21:34:57.128Z,79.80
2018-11-21T21:37:37.069Z,80.30
2018-11-21T21:58:17.663Z,81.30
2018-11-21T22:01:12.060Z,81.30
2018-11-21T22:04:04.421Z,80.80
2018-11-21T22:07:05.173Z,80.90
2018-11-21T22:10:14.326Z,80.80
2018-11-21T22:13:02.450Z,80.50
2018-11-21T22:15:50.572Z,80.90
2018-11-21T22:18:38.433Z,81.70
2018-11-21T22:21:26.314Z,82.20
2018-11-21T22:24:14.136Z,81.90
2018-11-21T22:27:01.964Z,81.20
2018-11-21T22:29:49.723Z,81.20
2018-11-21T22:32:37.582Z,81.20
2018-11-21T22:35:26.874Z,81.30
2018-11-21T22:38:14.717Z,81.90
2018-11-21T22:41:02.563Z,81.50
2018-11-21T22:43:50.403Z,81.40
2018-11-21T22:46:38.308Z,81.40
2018-11-21T22:49:26.065Z,81.80
2018-11-21T22:52:13.850Z,81.90
2018-11-21T22:55:01.643Z,81.50
2018-11-21T22:57:50.009Z,82.10
2018-11-21T23:00:40.120Z,82.60
2018-11-21T23:03:27.969Z,82.60
2018-11-21T23:06:15.788Z,82.20
2018-11-21T23:09:03.725Z,82.60
2018-11-21T23:11:51.588Z,82.60
2018-11-21T23:14:39.373Z,81.90
2018-11-21T23:17:20.554Z,82.10
2018-11-21T23:20:02.137Z,82.00
2018-11-21T23:22:43.210Z,82.50
2018-11-21T23:25:24.225Z,82.40
2018-11-21T23:28:05.062Z,82.60
2018-11-21T23:33:28.837Z,82.60
2018-11-21T23:36:09.955Z,82.50
2018-11-21T23:41:33.030Z,82.50
2018-11-21T23:44:13.746Z,82.70
2018-11-21T23:46:54.071Z,82.70
2018-11-21T23:49:35.484Z,82.60
2018-11-21T23:52:16.606Z,82.50
2018-11-21T23:54:57.587Z,82.50
2018-11-21T23:57:38.072Z,83.00
